Time;durP1;ratioP1;P1;durP2;ratioP2;P2;SDS_P1;SDS_P2;PMS_P1;PMS_P2;Temp;Humidity;BMP_temperature;BMP_pressure;BME280_temperature;BME280_humidity;BME280_pressure;Samples;Min_cycle;Max_cycle;Signal;HPM_P1;HPM_P2
2021/12/14 00:01:35;;;;;;;13.63;8.57;;;;;;;17.12;63.29;99622.81;3126185;28;20068;-44
2021/12/14 00:03:09;;;;;;;11.57;7.55;;;;;;;17.11;63.20;99621.16;3125083;28;20095;-43
2021/12/14 00:04:41;;;;;;;14.55;8.90;;;;;;;17.08;63.30;99622.34;3125136;28;20438;-42
2021/12/14 00:06:15;;;;;;;13.45;7.45;;;;;;;17.08;63.26;99622.34;3124861;28;20049;-43
2021/12/14 00:07:47;;;;;;;19.13;8.40;;;;;;;17.08;63.39;99622.34;3120773;28;20656;-42
2021/12/14 00:09:25;;;;;;;16.83;8.20;;;;;;;17.06;63.49;99624.34;3124922;28;20053;-44
2021/12/14 00:11:28;;;;;;;15.32;8.80;;;;;;;17.05;63.50;99617.31;3126208;28;20057;-43
2021/12/14 00:13:10;;;;;;;15.05;9.02;;;;;;;17.03;63.51;99621.19;3125263;28;20164;-44
2021/12/14 00:15:04;;;;;;;14.48;7.88;;;;;;;17.02;63.62;99616.81;3124974;28;20044;-42
2021/12/14 00:16:37;;;;;;;13.52;7.43;;;;;;;16.99;63.66;99617.97;3124749;28;20473;-42
2021/12/14 00:18:13;;;;;;;13.07;7.90;;;;;;;16.98;63.75;99621.66;3125795;28;20816;-43
2021/12/14 00:19:46;;;;;;;12.23;8.05;;;;;;;16.96;63.75;99621.00;3124849;28;20565;-42
2021/12/14 00:21:28;;;;;;;11.23;8.02;;;;;;;16.94;63.70;99621.19;3127707;28;20426;-44
2021/12/14 00:24:49;;;;;;;13.15;7.53;;;;;;;16.93;63.77;99619.47;3126329;28;20187;-43
2021/12/14 00:26:22;;;;;;;13.10;7.45;;;;;;;16.91;63.81;99617.97;3125303;28;20068;-43
2021/12/14 00:27:54;;;;;;;13.45;9.27;;;;;;;16.90;63.73;99616.31;3128203;28;20500;-44
2021/12/14 00:29:30;;;;;;;10.95;7.55;;;;;;;16.87;63.83;99620.16;3126510;28;20168;-44
2021/12/14 00:31:09;;;;;;;14.98;8.00;;;;;;;16.87;63.97;99622.84;3128443;28;20053;-43
2021/12/14 00:32:41;;;;;;;13.85;8.05;;;;;;;16.84;63.91;99620.50;3126918;28;20049;-44
2021/12/14 00:34:21;;;;;;;13.90;8.27;;;;;;;16.83;63.96;99618.84;3126825;28;20057;-44
2021/12/14 00:35:54;;;;;;;14.23;7.85;;;;;;;16.82;63.94;99619.81;3125690;28;20057;-46
2021/12/14 00:37:30;;;;;;;9.77;6.75;;;;;;;16.80;63.89;99618.31;3126150;28;20045;-46
2021/12/14 00:39:05;;;;;;;15.23;8.40;;;;;;;16.80;63.99;99624.53;3128189;28;20057;-45
2021/12/14 00:40:41;;;;;;;10.93;7.00;;;;;;;16.78;63.99;99617.66;3126043;28;20053;-44
2021/12/14 00:42:14;;;;;;;16.52;8.68;;;;;;;16.76;64.07;99620.47;3122840;28;20049;-44
2021/12/14 00:43:46;;;;;;;15.38;8.52;;;;;;;16.76;64.06;99617.78;3127375;28;20131;-44
2021/12/14 00:45:20;;;;;;;12.68;7.68;;;;;;;16.74;64.07;99617.97;3123254;28;20080;-43
2021/12/14 00:46:52;;;;;;;11.82;7.40;;;;;;;16.72;63.94;99614.63;3118721;28;20594;-44
2021/12/14 00:48:26;;;;;;;10.85;7.43;;;;;;;16.71;63.98;99617.44;3127135;28;20041;-44
2021/12/14 00:49:58;;;;;;;15.05;8.05;;;;;;;16.69;64.05;99614.97;3128474;28;20048;-43
2021/12/14 00:51:30;;;;;;;14.18;7.25;;;;;;;16.68;64.14;99617.78;3128706;28;20143;-44
2021/12/14 00:53:02;;;;;;;12.63;7.82;;;;;;;16.67;64.11;99625.00;3128355;28;20136;-43
2021/12/14 00:54:34;;;;;;;11.98;7.63;;;;;;;16.65;64.07;99616.28;3126258;28;20102;-43
2021/12/14 00:56:09;;;;;;;14.55;8.38;;;;;;;16.64;64.14;99625.34;3125885;28;20076;-45
2021/12/14 00:57:41;;;;;;;12.88;8.60;;;;;;;16.64;64.17;99613.78;3126913;28;20467;-44
2021/12/14 00:59:13;;;;;;;11.45;7.90;;;;;;;16.62;64.11;99605.06;3126768;28;20071;-44
2021/12/14 01:00:49;;;;;;;10.90;7.18;;;;;;;16.60;64.17;99607.06;3124767;28;20076;-45
2021/12/14 01:02:23;;;;;;;13.18;7.50;;;;;;;16.59;64.27;99610.75;3125682;28;20140;-43
2021/12/14 01:04:00;;;;;;;11.43;7.80;;;;;;;16.58;64.13;99609.94;3123060;28;20068;-45
2021/12/14 01:05:37;;;;;;;10.68;7.35;;;;;;;16.57;64.30;99610.09;3125646;28;20048;-44
2021/12/14 01:07:11;;;;;;;11.93;6.75;;;;;;;16.54;64.28;99611.25;3126609;28;20128;-44
2021/12/14 01:08:46;;;;;;;11.43;7.50;;;;;;;16.52;64.31;99606.06;3127773;28;20569;-44
2021/12/14 01:10:23;;;;;;;13.77;7.90;;;;;;;16.52;64.14;99602.56;3127178;28;20593;-43
2021/12/14 01:12:02;;;;;;;9.82;6.45;;;;;;;16.50;64.22;99601.88;3120923;28;20053;-42
2021/12/14 01:13:41;;;;;;;9.60;7.38;;;;;;;16.49;64.30;99610.91;3126469;28;20048;-46
2021/12/14 01:15:26;;;;;;;13.57;7.38;;;;;;;16.48;64.26;99609.25;3124732;28;20045;-45
2021/12/14 01:17:10;;;;;;;10.80;7.38;;;;;;;16.46;64.16;99606.72;3113655;28;20046;-48
2021/12/14 01:18:48;;;;;;;14.43;7.38;;;;;;;16.46;64.38;99608.56;3114418;28;20140;-46
2021/12/14 01:20:30;;;;;;;12.10;6.82;;;;;;;16.44;64.45;99607.91;3124634;28;20060;-47
2021/12/14 01:22:30;;;;;;;11.13;6.90;;;;;;;16.43;64.41;99609.72;3125911;28;20402;-45
2021/12/14 01:24:09;;;;;;;12.50;7.25;;;;;;;16.41;64.42;99608.22;3126203;28;20045;-49
2021/12/14 01:25:42;;;;;;;11.25;6.75;;;;;;;16.39;64.49;99597.69;3123757;28;20059;-47
2021/12/14 01:27:18;;;;;;;14.13;7.10;;;;;;;16.37;64.33;99605.03;3126589;28;20464;-46
2021/12/14 01:28:51;;;;;;;10.77;6.38;;;;;;;16.35;64.19;99604.38;3125026;28;20052;-46
2021/12/14 01:30:31;;;;;;;11.45;7.10;;;;;;;16.35;64.39;99604.38;3123071;28;20056;-45
2021/12/14 01:32:04;;;;;;;9.75;6.28;;;;;;;16.34;64.42;99607.22;3125083;28;20099;-46
2021/12/14 01:33:38;;;;;;;10.32;5.95;;;;;;;16.31;64.41;99611.91;3125675;28;20053;-45
2021/12/14 01:35:13;;;;;;;10.50;6.68;;;;;;;16.30;64.56;99612.06;3124789;28;20049;-45
2021/12/14 01:36:51;;;;;;;9.82;6.22;;;;;;;16.29;64.51;99608.53;3125461;28;20132;-45
2021/12/14 01:38:34;;;;;;;10.38;7.22;;;;;;;16.28;64.39;99611.41;3125237;28;20053;-46
2021/12/14 01:40:17;;;;;;;10.52;7.07;;;;;;;16.26;64.47;99608.88;3125783;28;20048;-46
2021/12/14 01:42:00;;;;;;;11.38;7.05;;;;;;;16.24;64.54;99613.56;3124620;28;20142;-47
2021/12/14 01:43:38;;;;;;;10.45;6.88;;;;;;;16.24;64.64;99607.34;3125285;28;20081;-47
2021/12/14 01:45:13;;;;;;;10.30;6.72;;;;;;;16.23;64.52;99611.88;3124699;28;20477;-45
2021/12/14 01:46:47;;;;;;;12.18;7.68;;;;;;;16.21;64.72;99607.69;3125318;28;20060;-45
2021/12/14 01:48:20;;;;;;;10.25;6.07;;;;;;;16.19;64.59;99610.56;3123320;28;20049;-56
2021/12/14 01:49:52;;;;;;;8.93;6.30;;;;;;;16.19;64.56;99610.56;3126417;28;20426;-46
2021/12/14 01:51:25;;;;;;;12.07;6.55;;;;;;;16.18;64.89;99603.50;3125965;28;20045;-45
2021/12/14 01:52:59;;;;;;;11.65;6.10;;;;;;;16.19;65.05;99599.84;3120531;28;20065;-47
2021/12/14 01:54:35;;;;;;;8.98;6.05;;;;;;;16.18;64.95;99600.00;3113755;28;20049;-46
2021/12/14 01:56:10;;;;;;;11.60;6.70;;;;;;;16.18;64.97;99606.19;3127139;28;20538;-47
2021/12/14 01:57:44;;;;;;;11.18;7.25;;;;;;;16.20;65.04;99606.03;3124829;28;20084;-45
2021/12/14 01:59:25;;;;;;;11.45;5.90;;;;;;;16.21;64.98;99602.34;3124782;28;20119;-45
2021/12/14 02:01:00;;;;;;;10.90;6.82;;;;;;;16.21;64.99;99596.97;3118477;28;20055;-46
2021/12/14 02:02:41;;;;;;;7.95;5.22;;;;;;;16.21;65.08;99594.31;3124989;28;20122;-46
2021/12/14 02:04:16;;;;;;;9.57;6.65;;;;;;;16.22;65.06;99594.16;3125471;28;20051;-46
2021/12/14 02:05:50;;;;;;;8.68;6.07;;;;;;;16.22;64.74;99590.66;3125093;28;20669;-46
2021/12/14 02:07:25;;;;;;;12.50;6.75;;;;;;;16.22;64.83;99591.47;3124381;28;20072;-45
2021/12/14 02:09:04;;;;;;;8.50;6.43;;;;;;;16.22;64.83;99588.81;3127155;28;20136;-45
2021/12/14 02:10:38;;;;;;;9.07;6.22;;;;;;;16.23;64.74;99589.63;3126113;28;20056;-44
2021/12/14 02:12:13;;;;;;;10.60;6.90;;;;;;;16.23;64.90;99587.78;3127118;28;20059;-45
2021/12/14 02:13:48;;;;;;;9.35;5.82;;;;;;;16.23;64.78;99582.44;3125224;28;20080;-46
2021/12/14 02:15:23;;;;;;;8.70;5.47;;;;;;;16.22;64.81;99588.81;3124160;28;20135;-45
2021/12/14 02:16:58;;;;;;;11.43;6.38;;;;;;;16.22;64.76;99596.84;3125407;28;20488;-47
2021/12/14 02:18:31;;;;;;;10.45;6.20;;;;;;;16.22;64.83;99588.81;3125987;28;20088;-45
2021/12/14 02:20:05;;;;;;;8.20;6.57;;;;;;;16.21;64.71;99592.47;3120368;28;20518;-48
2021/12/14 02:21:38;;;;;;;9.43;5.57;;;;;;;16.23;64.93;99595.00;3125329;28;20598;-45
2021/12/14 02:23:10;;;;;;;11.10;6.55;;;;;;;16.22;64.83;99594.16;3127404;28;20052;-46
2021/12/14 02:24:45;;;;;;;11.05;6.78;;;;;;;16.21;64.95;99591.63;3122928;28;20061;-45
2021/12/14 02:26:20;;;;;;;10.32;6.13;;;;;;;16.21;64.77;99595.13;3124066;28;20041;-46
2021/12/14 02:27:54;;;;;;;9.35;6.13;;;;;;;16.19;64.69;99596.34;3125325;28;20052;-46
2021/12/14 02:29:28;;;;;;;9.18;5.97;;;;;;;16.20;64.73;99601.50;3125950;28;20080;-46
2021/12/14 02:31:03;;;;;;;9.23;6.63;;;;;;;16.19;64.93;99599.00;3125585;28;20437;-46
2021/12/14 02:32:34;;;;;;;11.00;6.32;;;;;;;16.18;64.99;99598.16;3125774;28;20060;-48
2021/12/14 02:34:08;;;;;;;8.45;5.15;;;;;;;16.18;64.77;99600.81;3126869;28;20056;-45
2021/12/14 02:35:41;;;;;;;7.80;5.95;;;;;;;16.17;64.93;99593.81;3124208;28;20055;-46
2021/12/14 02:37:16;;;;;;;12.15;6.78;;;;;;;16.17;64.89;99599.16;3126352;28;20132;-46
2021/12/14 02:38:53;;;;;;;8.57;5.45;;;;;;;16.16;64.72;99594.81;3120942;28;20049;-45
2021/12/14 02:40:53;;;;;;;7.38;5.25;;;;;;;16.16;64.83;99599.31;3123077;28;20041;-46
2021/12/14 02:42:26;;;;;;;8.90;6.30;;;;;;;16.13;64.93;99589.81;3125069;28;20433;-46
2021/12/14 02:43:59;;;;;;;10.20;6.47;;;;;;;16.12;64.87;99580.06;3127478;28;20090;-47
2021/12/14 02:45:31;;;;;;;8.60;6.18;;;;;;;16.13;64.91;99583.59;3124698;28;20120;-45
2021/12/14 02:47:07;;;;;;;9.43;6.25;;;;;;;16.12;64.84;99581.91;3126968;28;20063;-46
2021/12/14 02:48:41;;;;;;;7.78;5.55;;;;;;;16.11;64.95;99591.78;3125033;28;20040;-46
2021/12/14 02:50:15;;;;;;;7.90;4.90;;;;;;;16.11;64.88;99591.78;3126811;28;20049;-45
2021/12/14 02:51:50;;;;;;;9.40;5.93;;;;;;;16.10;64.83;99587.41;3126260;28;20049;-45
2021/12/14 02:53:23;;;;;;;8.68;5.82;;;;;;;16.09;64.79;99591.94;3125487;28;20052;-47
2021/12/14 02:55:00;;;;;;;10.30;6.05;;;;;;;16.08;64.93;99584.94;3123754;28;20088;-45
2021/12/14 02:56:34;;;;;;;12.45;5.53;;;;;;;16.08;64.92;99586.78;3124344;28;20041;-45
2021/12/14 02:58:08;;;;;;;8.48;5.68;;;;;;;16.07;65.00;99588.63;3121509;28;20055;-46
2021/12/14 02:59:43;;;;;;;8.65;5.68;;;;;;;16.05;64.80;99581.75;3124005;28;21090;-46
2021/12/14 03:01:18;;;;;;;7.95;5.80;;;;;;;16.04;64.93;99580.06;3125163;28;20145;-47
2021/12/14 03:02:50;;;;;;;7.75;5.28;;;;;;;16.04;64.91;99577.38;3126040;28;20072;-46
2021/12/14 03:04:21;;;;;;;9.23;5.63;;;;;;;16.03;64.83;99583.75;3124546;28;20572;-46
2021/12/14 03:05:53;;;;;;;8.35;5.22;;;;;;;16.02;64.95;99582.91;3121786;28;20053;-45
2021/12/14 03:07:31;;;;;;;10.40;5.35;;;;;;;16.01;65.15;99578.53;3124146;28;20332;-47
2021/12/14 03:09:19;;;;;;;8.65;5.65;;;;;;;16.00;64.99;99582.22;3125424;28;20052;-45
2021/12/14 03:10:58;;;;;;;8.75;6.15;;;;;;;15.99;64.78;99569.88;3124435;28;20083;-46
2021/12/14 03:12:34;;;;;;;7.72;5.70;;;;;;;15.98;64.91;99578.88;3114401;28;20053;-47
2021/12/14 03:14:06;;;;;;;6.65;5.30;;;;;;;15.98;65.05;99575.38;3112235;28;20152;-46
2021/12/14 03:15:47;;;;;;;7.47;4.85;;;;;;;15.96;64.92;99580.03;3113689;28;20053;-46
2021/12/14 03:17:19;;;;;;;8.50;5.55;;;;;;;15.95;65.12;99570.34;3124673;28;20045;-45
2021/12/14 03:18:53;;;;;;;8.02;5.10;;;;;;;15.94;64.95;99569.50;3124826;28;20041;-49
2021/12/14 03:20:28;;;;;;;9.25;5.15;;;;;;;15.94;64.97;99571.34;3125017;28;20052;-48
2021/12/14 03:22:00;;;;;;;8.68;5.45;;;;;;;15.92;64.86;99574.19;3125792;28;20056;-47
2021/12/14 03:23:33;;;;;;;;;;;;;;;15.92;64.84;99576.84;3124432;28;20124;-45
2021/12/14 03:25:08;;;;;;;9.05;4.85;;;;;;;15.91;64.93;99572.53;3125037;28;19920;-45
2021/12/14 03:26:42;;;;;;;9.40;5.57;;;;;;;15.92;65.07;99576.03;3124816;28;20071;-45
2021/12/14 03:28:16;;;;;;;6.95;5.03;;;;;;;15.91;64.91;99577.00;3123590;28;20044;-45
2021/12/14 03:29:48;;;;;;;6.88;5.30;;;;;;;15.89;65.13;99571.84;3125892;28;20052;-45
2021/12/14 03:31:25;;;;;;;7.82;5.15;;;;;;;15.88;65.22;99570.19;3124571;28;20136;-46
2021/12/14 03:33:00;;;;;;;9.25;5.78;;;;;;;15.88;65.05;99578.19;3125957;28;20076;-44
2021/12/14 03:34:35;;;;;;;7.20;4.72;;;;;;;15.86;65.13;99573.00;3123588;28;20052;-45
2021/12/14 03:36:10;;;;;;;8.55;5.60;;;;;;;15.85;65.10;99578.50;3126082;28;20049;-46
2021/12/14 03:37:41;;;;;;;7.97;4.97;;;;;;;15.84;65.09;99577.66;3124503;28;20106;-45
2021/12/14 03:39:16;;;;;;;8.25;6.15;;;;;;;15.83;65.04;99565.31;3125482;28;20115;-47
2021/12/14 03:40:58;;;;;;;6.20;4.35;;;;;;;15.82;65.29;99565.44;3126263;28;20554;-45
2021/12/14 03:42:36;;;;;;;7.55;4.95;;;;;;;15.80;65.13;99567.47;3125069;28;20040;-45
2021/12/14 03:44:11;;;;;;;7.18;4.68;;;;;;;15.80;65.24;99570.16;3124016;28;20132;-45
2021/12/14 03:45:43;;;;;;;7.22;4.45;;;;;;;15.79;65.05;99573.81;3123002;28;20057;-45
2021/12/14 03:47:17;;;;;;;7.22;4.57;;;;;;;15.79;65.38;99577.31;3125641;28;20041;-45
2021/12/14 03:48:49;;;;;;;9.10;6.05;;;;;;;15.78;65.52;99570.28;3125324;28;20064;-44
2021/12/14 03:50:27;;;;;;;8.98;5.35;;;;;;;15.79;65.46;99576.47;3123997;28;20475;-46
2021/12/14 03:51:59;;;;;;;5.88;4.85;;;;;;;15.80;65.61;99565.63;3124666;28;20498;-46
2021/12/14 03:53:31;;;;;;;8.50;5.35;;;;;;;15.80;65.58;99562.94;3123166;28;20467;-45
2021/12/14 03:55:10;;;;;;;8.40;5.07;;;;;;;15.82;65.58;99563.63;3126347;28;20128;-45
2021/12/14 03:56:43;;;;;;;9.80;4.63;;;;;;;15.83;65.64;99562.63;3128271;28;20131;-46
2021/12/14 03:58:19;;;;;;;9.68;5.65;;;;;;;15.84;65.48;99563.47;3126016;28;20053;-45
2021/12/14 03:59:52;;;;;;;7.90;5.53;;;;;;;15.85;65.36;99560.63;3127601;28;20100;-45
2021/12/14 04:01:27;;;;;;;6.90;4.70;;;;;;;15.86;65.42;99561.47;3125731;28;20139;-47
2021/12/14 04:03:04;;;;;;;8.23;4.25;;;;;;;15.86;65.43;99561.47;3128535;28;20148;-45
2021/12/14 04:04:39;;;;;;;6.97;4.93;;;;;;;15.85;65.35;99552.59;3125626;28;20041;-46
2021/12/14 04:06:12;;;;;;;6.75;4.13;;;;;;;15.88;65.53;99558.59;3127896;28;20140;-47
2021/12/14 04:07:45;;;;;;;10.93;4.68;;;;;;;15.89;65.78;99552.28;3127904;28;20064;-45
2021/12/14 04:09:20;;;;;;;9.65;4.95;;;;;;;15.92;65.40;99546.59;3128523;28;20056;-45
2021/12/14 04:10:54;;;;;;;10.40;4.97;;;;;;;15.94;65.33;99547.28;3125586;28;20837;-44
2021/12/14 04:12:27;;;;;;;7.85;4.32;;;;;;;15.93;65.37;99553.59;3127313;28;20049;-45
2021/12/14 04:13:59;;;;;;;14.60;6.57;;;;;;;15.93;65.28;99551.75;3124574;28;20087;-45
2021/12/14 04:15:31;;;;;;;9.90;5.43;;;;;;;15.92;65.24;99558.13;3125344;28;20141;-44
2021/12/14 04:17:03;;;;;;;9.73;4.15;;;;;;;15.91;65.23;99552.94;3128835;28;20624;-45
2021/12/14 04:18:36;;;;;;;11.48;4.40;;;;;;;15.90;65.27;99549.41;3127689;28;20060;-46
2021/12/14 04:20:13;;;;;;;7.10;4.03;;;;;;;15.90;65.11;99552.09;3127316;28;20052;-44
2021/12/14 04:21:46;;;;;;;9.95;4.45;;;;;;;15.89;65.07;99538.91;3127621;28;20053;-44
2021/12/14 04:23:23;;;;;;;5.57;4.38;;;;;;;15.88;65.20;99543.41;3124964;28;20406;-44
2021/12/14 04:24:58;;;;;;;10.05;4.95;;;;;;;15.88;65.32;99534.53;3126794;28;20098;-44
2021/12/14 04:26:30;;;;;;;8.40;4.78;;;;;;;15.88;65.13;99542.56;3124710;28;20056;-45
2021/12/14 04:28:07;;;;;;;9.82;4.10;;;;;;;15.86;65.19;99534.72;3126758;28;20103;-44
2021/12/14 04:29:40;;;;;;;8.35;4.20;;;;;;;15.86;65.23;99546.25;3124419;28;20155;-44
2021/12/14 04:31:12;;;;;;;9.10;5.30;;;;;;;15.85;65.23;99543.72;3126281;28;20049;-44
2021/12/14 04:32:47;;;;;;;7.97;5.05;;;;;;;15.85;65.22;99539.22;3125157;28;20141;-44
2021/12/14 04:34:20;;;;;;;9.80;4.78;;;;;;;15.84;65.08;99540.22;3127558;28;20115;-44
2021/12/14 04:35:54;;;;;;;9.35;3.92;;;;;;;15.84;65.11;99540.22;3124945;28;20116;-44
2021/12/14 04:37:26;;;;;;;6.38;4.55;;;;;;;15.84;65.10;99540.22;3126967;28;20763;-45
2021/12/14 04:39:03;;;;;;;5.95;3.97;;;;;;;15.83;65.18;99541.22;3128882;28;20136;-44
2021/12/14 04:51:55;;;;;;;10.10;3.85;;;;;;;15.82;65.25;99538.69;3126307;28;20045;-44
2021/12/14 04:52:00;;;;;;;9.63;4.35;;;;;;;15.80;65.35;99551.44;3117210;28;20049;-48
2021/12/14 04:53:45;;;;;;;6.43;3.80;;;;;;;15.77;65.41;99552.59;3127446;28;20127;-48
2021/12/14 04:55:17;;;;;;;6.10;4.10;;;;;;;15.77;65.28;99555.25;3125385;28;20503;-46
2021/12/14 04:56:50;;;;;;;7.68;3.88;;;;;;;15.75;65.14;99554.56;3126793;28;20114;-47
2021/12/14 04:58:33;;;;;;;10.13;3.47;;;;;;;15.75;65.28;99562.59;3125511;28;20051;-45
2021/12/14 05:00:21;;;;;;;9.05;3.70;;;;;;;15.74;65.38;99563.59;3126597;28;20067;-45
2021/12/14 05:01:55;;;;;;;6.07;3.63;;;;;;;15.74;65.25;99563.59;3127103;28;20079;-45
2021/12/14 05:03:31;;;;;;;5.07;3.70;;;;;;;15.73;65.70;99553.88;3126034;28;20140;-44
2021/12/14 05:05:05;;;;;;;5.60;4.15;;;;;;;15.73;65.40;99561.91;3126908;28;20080;-45
2021/12/14 05:06:46;;;;;;;6.40;4.20;;;;;;;15.74;65.26;99562.75;3127307;28;20065;-45
2021/12/14 05:10:09;;;;;;;5.30;3.90;;;;;;;15.76;65.26;99550.88;3127385;28;20037;-45
2021/12/14 05:11:40;;;;;;;8.38;4.70;;;;;;;15.79;65.36;99563.09;3125793;28;20092;-44
2021/12/14 05:13:13;;;;;;;6.83;3.93;;;;;;;15.82;65.26;99552.94;3127703;28;20053;-46
2021/12/14 05:14:46;;;;;;;5.63;3.88;;;;;;;15.86;65.24;99551.59;3124846;28;20394;-47
2021/12/14 05:16:22;;;;;;;8.70;4.25;;;;;;;15.94;64.95;99560.66;3125660;28;20131;-45
2021/12/14 05:17:53;;;;;;;6.10;3.92;;;;;;;16.01;64.68;99561.66;3123073;28;20128;-45
2021/12/14 05:19:27;;;;;;;7.13;3.83;;;;;;;16.08;64.74;99558.16;3124480;28;20057;-47
2021/12/14 05:21:00;;;;;;;5.90;3.55;;;;;;;16.17;64.62;99559.00;3127411;28;20667;-44
2021/12/14 05:22:35;;;;;;;5.47;3.20;;;;;;;16.24;64.41;99559.19;3127875;28;20072;-46
2021/12/14 05:24:09;;;;;;;7.43;3.83;;;;;;;16.30;64.29;99550.50;3127037;28;20688;-45
2021/12/14 05:25:41;;;;;;;6.00;3.92;;;;;;;16.37;64.17;99553.34;3126816;28;20585;-45
2021/12/14 05:27:17;;;;;;;4.95;3.17;;;;;;;16.44;64.05;99554.38;3126900;28;20067;-45
2021/12/14 05:28:49;;;;;;;6.18;4.28;;;;;;;16.50;64.09;99559.03;3123385;28;20054;-45
2021/12/14 05:30:26;;;;;;;5.72;3.35;;;;;;;16.54;63.90;99550.50;3113207;28;20048;-44
2021/12/14 05:32:02;;;;;;;5.72;3.33;;;;;;;16.61;63.91;99556.03;3127195;28;20565;-44
2021/12/14 05:33:35;;;;;;;4.72;3.33;;;;;;;16.66;63.81;99553.69;3124482;28;20072;-44
2021/12/14 05:35:10;;;;;;;4.82;3.88;;;;;;;16.73;63.74;99560.03;3126038;28;20448;-44
2021/12/14 05:36:43;;;;;;;6.50;4.15;;;;;;;16.79;63.65;99568.44;3125045;28;20060;-44
2021/12/14 05:38:20;;;;;;;7.25;3.90;;;;;;;16.83;63.60;99575.13;3127541;28;20076;-44
2021/12/14 05:39:57;;;;;;;5.13;3.30;;;;;;;16.87;63.40;99582.66;3126940;28;20635;-44
2021/12/14 05:43:26;;;;;;;5.70;3.90;;;;;;;16.97;63.11;99588.69;3129591;28;20053;-51
2021/12/14 05:45:03;;;;;;;5.00;3.35;;;;;;;17.02;63.36;99582.81;3129589;28;20045;-44
2021/12/14 05:46:35;;;;;;;6.13;3.70;;;;;;;17.04;63.35;99588.81;3124488;28;20049;-44
2021/12/14 05:48:10;;;;;;;4.72;3.25;;;;;;;17.09;63.18;99589.16;3126948;28;20048;-45
2021/12/14 05:49:45;;;;;;;5.05;2.97;;;;;;;17.12;63.21;99588.81;3125405;28;20072;-45
2021/12/14 05:51:17;;;;;;;6.18;3.03;;;;;;;17.16;63.42;99590.16;3127077;28;20764;-45
2021/12/14 05:52:49;;;;;;;4.72;2.92;;;;;;;17.18;63.16;99596.16;3125680;28;20084;-45
2021/12/14 05:54:24;;;;;;;4.03;2.90;;;;;;;17.23;63.01;99589.47;3124157;28;20554;-45
2021/12/14 05:55:57;;;;;;;5.63;3.67;;;;;;;17.27;62.99;99591.63;3123539;28;20060;-45
2021/12/14 05:57:29;;;;;;;5.03;3.38;;;;;;;17.31;63.01;99584.09;3126556;28;20041;-45
2021/12/14 05:59:03;;;;;;;4.53;2.90;;;;;;;17.36;62.94;99581.72;3125972;28;20141;-45
2021/12/14 06:00:35;;;;;;;7.50;3.80;;;;;;;17.38;62.98;99574.31;3125142;28;20120;-44
2021/12/14 06:02:09;;;;;;;4.13;2.75;;;;;;;17.42;62.75;99575.66;3121427;28;20143;-45
2021/12/14 06:03:46;;;;;;;3.67;2.97;;;;;;;17.46;62.58;99581.50;3124952;28;20057;-46
2021/12/14 06:05:21;;;;;;;3.92;3.03;;;;;;;17.48;62.83;99585.69;3125904;28;20048;-46
2021/12/14 06:06:56;;;;;;;6.82;3.17;;;;;;;17.51;62.64;99592.56;3124859;28;20105;-44
2021/12/14 06:08:31;;;;;;;5.60;3.42;;;;;;;17.53;62.74;99588.69;3125294;28;20053;-47
2021/12/14 06:10:03;;;;;;;5.50;3.22;;;;;;;17.53;62.66;99588.69;3123194;28;20056;-44
2021/12/14 06:11:35;;;;;;;4.78;3.08;;;;;;;17.55;62.52;99586.69;3126167;28;20099;-44
2021/12/14 06:13:07;;;;;;;5.97;3.53;;;;;;;17.57;62.53;99581.97;3124483;28;20139;-45
2021/12/14 06:14:49;;;;;;;5.07;3.22;;;;;;;17.58;62.56;99586.34;3124923;28;20049;-45
2021/12/14 06:16:22;;;;;;;;;;;;;;;17.59;62.58;99576.44;3126681;28;20737;-49
2021/12/14 06:17:54;;;;;;;5.40;3.40;;;;;;;17.60;62.65;99576.25;3125403;28;19956;-45
2021/12/14 06:19:30;;;;;;;4.38;3.13;;;;;;;17.61;62.57;99572.56;3123941;28;20096;-45
2021/12/14 06:21:02;;;;;;;3.92;2.75;;;;;;;17.61;62.60;99572.56;3121300;28;20056;-44
2021/12/14 06:22:35;;;;;;;4.93;3.65;;;;;;;17.63;62.54;99570.56;3124791;28;20128;-45
2021/12/14 06:24:10;;;;;;;4.05;2.80;;;;;;;17.63;62.54;99569.69;3126486;28;20049;-46
2021/12/14 06:25:42;;;;;;;5.78;3.17;;;;;;;17.63;62.78;99572.38;3125552;28;20840;-45
2021/12/14 06:27:17;;;;;;;4.85;2.80;;;;;;;17.63;62.74;99577.75;3126256;28;20068;-45
2021/12/14 06:28:49;;;;;;;4.20;2.92;;;;;;;17.63;62.73;99572.38;3124855;28;20402;-47
2021/12/14 06:30:23;;;;;;;4.75;3.00;;;;;;;17.63;62.53;99573.25;3125332;28;20736;-45
2021/12/14 06:31:56;;;;;;;7.00;2.53;;;;;;;17.63;62.75;99578.63;3126122;28;20128;-44
2021/12/14 06:33:29;;;;;;;4.57;2.50;;;;;;;17.64;62.85;99576.75;3127551;28;20048;-45
2021/12/14 06:35:08;;;;;;;5.72;3.05;;;;;;;17.63;62.86;99578.63;3125351;28;20152;-44
2021/12/14 06:37:23;;;;;;;3.08;2.53;;;;;;;17.63;62.72;99586.66;3123037;28;20040;-46
2021/12/14 06:39:05;;;;;;;2.92;2.35;;;;;;;17.62;62.84;99582.28;3123523;28;20131;-46
2021/12/14 06:40:41;;;;;;;6.70;2.97;;;;;;;17.63;62.93;99583.13;3119466;28;20521;-45
2021/12/14 06:42:13;;;;;;;5.50;2.45;;;;;;;17.62;62.79;99587.66;3125165;28;20052;-46
2021/12/14 06:43:48;;;;;;;2.63;2.20;;;;;;;17.63;62.67;99588.47;3125297;28;20052;-45
2021/12/14 06:45:24;;;;;;;3.63;2.75;;;;;;;17.63;62.62;99586.66;3125004;28;20044;-49
2021/12/14 06:46:55;;;;;;;4.53;2.78;;;;;;;17.63;62.68;99586.66;3126130;28;20040;-46
2021/12/14 06:48:38;;;;;;;3.97;2.70;;;;;;;17.65;62.56;99589.97;3124654;28;20049;-44
2021/12/14 06:50:16;;;;;;;5.25;2.85;;;;;;;17.68;62.63;99596.03;3126390;28;20057;-45
2021/12/14 06:51:51;;;;;;;5.28;2.35;;;;;;;17.70;62.44;99596.69;3122225;28;20128;-46
2021/12/14 06:53:23;;;;;;;3.80;2.90;;;;;;;17.69;62.54;99593.19;3125378;28;20049;-47
2021/12/14 06:54:55;;;;;;;4.38;2.80;;;;;;;17.71;62.81;99595.66;3124476;28;20060;-46
2021/12/14 06:56:31;;;;;;;3.53;2.60;;;;;;;17.73;62.45;99599.03;3125544;28;20048;-45
2021/12/14 06:58:12;;;;;;;5.10;2.88;;;;;;;17.76;62.42;99609.41;3126354;28;20152;-44
2021/12/14 06:59:44;;;;;;;4.75;2.45;;;;;;;17.78;62.42;99610.94;3123129;28;20148;-45
2021/12/14 07:01:20;;;;;;;3.25;2.40;;;;;;;17.78;62.43;99608.25;3124949;28;20049;-45
2021/12/14 07:02:52;;;;;;;4.00;2.53;;;;;;;17.80;62.32;99611.59;3125993;28;20737;-45
2021/12/14 07:04:27;;;;;;;2.65;2.42;;;;;;;17.83;62.34;99610.44;3125626;28;20040;-45
2021/12/14 07:06:00;;;;;;;4.68;2.65;;;;;;;17.83;62.18;99605.88;3121899;28;21084;-44
2021/12/14 07:07:33;;;;;;;4.35;3.00;;;;;;;17.85;62.26;99603.84;3120171;28;20041;-46
2021/12/14 07:09:08;;;;;;;3.83;2.70;;;;;;;17.88;62.32;99613.41;3117691;28;20052;-45
2021/12/14 07:10:43;;;;;;;2.88;2.15;;;;;;;17.90;62.30;99611.38;3119726;28;20057;-44
2021/12/14 07:12:17;;;;;;;2.78;2.28;;;;;;;17.93;62.12;99605.66;3118132;28;20127;-45
2021/12/14 07:13:50;;;;;;;4.00;2.40;;;;;;;17.94;62.10;99609.16;3115477;28;20053;-47
2021/12/14 07:15:25;;;;;;;3.28;2.13;;;;;;;17.96;62.12;99610.66;3119622;28;20080;-45
2021/12/14 07:17:02;;;;;;;3.90;2.55;;;;;;;17.97;62.18;99611.50;3121910;28;20052;-46
2021/12/14 07:18:35;;;;;;;3.28;2.33;;;;;;;17.99;62.19;99601.44;3120796;28;20045;-46
2021/12/14 07:20:21;;;;;;;3.25;2.33;;;;;;;18.00;62.10;99612.00;3120495;28;20619;-45
2021/12/14 07:21:54;;;;;;;3.58;2.42;;;;;;;18.02;62.11;99606.44;3122552;28;20044;-45
2021/12/14 07:23:29;;;;;;;3.42;2.45;;;;;;;18.02;62.04;99604.59;3123800;28;20060;-45
2021/12/14 07:25:05;;;;;;;3.85;2.20;;;;;;;18.04;62.15;99601.75;3122002;28;20102;-46
2021/12/14 07:26:36;;;;;;;3.85;2.03;;;;;;;18.05;61.92;99603.41;3121984;28;20048;-45
2021/12/14 07:28:10;;;;;;;3.83;2.20;;;;;;;18.07;62.23;99598.72;3123024;28;20056;-44
2021/12/14 07:29:42;;;;;;;4.32;2.88;;;;;;;18.06;62.08;99589.00;3114671;28;20442;-46
2021/12/14 07:31:17;;;;;;;2.53;1.75;;;;;;;18.06;62.19;99599.72;3118222;28;20975;-45
2021/12/14 07:32:56;;;;;;;4.03;2.53;;;;;;;18.06;61.94;99600.56;3116528;28;20098;-46
2021/12/14 07:34:27;;;;;;;3.40;2.05;;;;;;;18.07;62.04;99591.47;3123954;28;20049;-47
2021/12/14 07:36:02;;;;;;;4.20;2.60;;;;;;;18.07;61.97;99588.78;3110403;28;20594;-44
2021/12/14 07:37:35;;;;;;;2.60;2.25;;;;;;;18.07;62.28;99591.47;3108828;28;20140;-45
2021/12/14 07:39:09;;;;;;;4.85;2.40;;;;;;;18.07;61.99;99599.53;3107174;28;20096;-45
2021/12/14 07:40:44;;;;;;;3.67;1.95;;;;;;;18.07;62.00;99591.47;3121639;28;20049;-44
2021/12/14 07:42:17;;;;;;;4.63;2.35;;;;;;;18.07;62.08;99602.22;3120563;28;20083;-46
2021/12/14 07:43:54;;;;;;;3.45;2.10;;;;;;;18.06;62.34;99591.69;3122916;28;20482;-45